createdAt,value
2018-06-23T00:01:05.772Z,12.00
2018-06-23T00:04:08.969Z,11.90
2018-06-23T00:07:12.142Z,11.80
2018-06-23T00:10:15.331Z,11.80
2018-06-23T00:13:18.612Z,11.80
2018-06-23T00:16:21.790Z,11.80
2018-06-23T00:19:24.975Z,11.80
2018-06-23T00:22:28.158Z,11.80
2018-06-23T00:25:36.790Z,11.80
2018-06-23T00:28:39.955Z,11.90
2018-06-23T00:31:43.144Z,11.90
2018-06-23T00:34:46.320Z,11.90
2018-06-23T00:37:49.490Z,11.80
2018-06-23T00:40:52.662Z,11.70
2018-06-23T00:43:55.857Z,11.60
2018-06-23T00:50:01.999Z,11.50
2018-06-23T00:53:05.208Z,11.40
2018-06-23T00:56:08.350Z,11.50
2018-06-23T00:59:22.975Z,11.30
2018-06-23T01:02:26.118Z,11.50
2018-06-23T01:05:29.317Z,11.50
2018-06-23T01:08:32.468Z,11.60
2018-06-23T01:11:35.769Z,11.70
2018-06-23T01:14:38.906Z,11.90
2018-06-23T01:17:42.059Z,12.00
2018-06-23T01:20:45.210Z,12.00
2018-06-23T01:23:48.355Z,12.00
2018-06-23T01:26:51.544Z,12.10
2018-06-23T01:29:54.689Z,12.10
2018-06-23T01:32:57.837Z,12.00
2018-06-23T01:36:01.043Z,11.90
2018-06-23T01:39:07.174Z,11.80
2018-06-23T01:42:10.378Z,11.80
2018-06-23T01:45:13.546Z,11.70
2018-06-23T01:48:16.734Z,11.70
2018-06-23T01:51:19.931Z,11.60
2018-06-23T01:54:23.107Z,11.60
2018-06-23T01:57:26.283Z,11.60
2018-06-23T02:00:29.484Z,11.60
2018-06-23T02:03:32.675Z,11.70
2018-06-23T02:06:35.858Z,11.80
2018-06-23T02:09:39.039Z,11.80
2018-06-23T02:12:42.207Z,11.80
2018-06-23T02:15:50.672Z,11.90
2018-06-23T02:18:59.191Z,11.90
2018-06-23T02:22:07.920Z,12.00
2018-06-23T02:25:16.688Z,12.00
2018-06-23T02:28:25.059Z,11.90
2018-06-23T02:31:33.661Z,11.90
2018-06-23T02:34:42.214Z,11.80
2018-06-23T02:37:45.487Z,11.80
2018-06-23T02:40:48.654Z,11.80
2018-06-23T02:43:51.834Z,11.80
2018-06-23T02:46:55.013Z,11.80
2018-06-23T02:49:59.935Z,11.80
2018-06-23T02:53:03.168Z,11.80
2018-06-23T02:56:06.355Z,11.80
2018-06-23T02:59:09.577Z,11.80
2018-06-23T03:02:12.784Z,11.80
2018-06-23T03:05:15.999Z,11.70
2018-06-23T03:08:19.198Z,11.50
2018-06-23T03:11:22.403Z,11.30
2018-06-23T03:14:25.699Z,11.30
2018-06-23T03:17:28.910Z,11.40
2018-06-23T03:20:32.586Z,11.30
2018-06-23T03:23:35.908Z,11.40
2018-06-23T03:26:39.122Z,11.30
2018-06-23T03:29:42.330Z,11.30
2018-06-23T03:32:45.634Z,11.30
2018-06-23T03:35:48.826Z,11.40
2018-06-23T03:38:52.056Z,11.40
2018-06-23T03:41:55.651Z,11.40
2018-06-23T03:44:58.862Z,11.50
2018-06-23T03:48:02.076Z,11.40
2018-06-23T03:51:05.322Z,11.40
2018-06-23T03:54:08.651Z,11.40
2018-06-23T03:57:11.867Z,11.50
2018-06-23T04:00:15.267Z,11.40
2018-06-23T04:06:21.550Z,11.40
2018-06-23T04:09:24.783Z,11.40
2018-06-23T04:12:27.999Z,11.50
2018-06-23T04:15:31.224Z,11.50
2018-06-23T04:18:34.432Z,11.70
2018-06-23T04:21:37.634Z,11.70
2018-06-23T04:27:43.820Z,11.80
2018-06-23T04:30:47.062Z,11.90
2018-06-23T04:33:50.491Z,12.10
2018-06-23T04:36:53.692Z,12.20
2018-06-23T04:39:56.908Z,12.20
2018-06-23T04:43:00.135Z,12.20
2018-06-23T04:46:03.374Z,12.30
2018-06-23T04:49:06.581Z,12.40
2018-06-23T04:52:09.772Z,12.60
2018-06-23T04:55:12.967Z,12.60
2018-06-23T04:58:22.822Z,12.60
2018-06-23T05:01:26.098Z,12.80
2018-06-23T05:04:29.283Z,12.90
2018-06-23T05:07:32.494Z,13.30
2018-06-23T05:10:35.671Z,13.50
2018-06-23T05:13:38.932Z,13.70
2018-06-23T05:16:42.348Z,13.60
2018-06-23T05:19:45.535Z,13.80
2018-06-23T05:22:48.713Z,14.00
2018-06-23T05:25:51.911Z,14.40
2018-06-23T05:28:55.096Z,14.30
2018-06-23T05:31:58.390Z,14.20
2018-06-23T05:35:01.669Z,14.10
2018-06-23T05:38:05.243Z,14.10
2018-06-23T05:41:08.468Z,14.30
2018-06-23T05:44:11.662Z,15.50
2018-06-23T05:47:14.922Z,17.80
2018-06-23T05:50:18.145Z,19.70
2018-06-23T05:53:21.391Z,21.00
2018-06-23T05:56:24.598Z,22.30
2018-06-23T05:59:27.870Z,23.20
2018-06-23T06:02:31.088Z,23.40
2018-06-23T06:05:34.502Z,22.90
2018-06-23T06:08:37.722Z,22.30
2018-06-23T06:11:40.981Z,21.10
2018-06-23T06:14:44.208Z,20.20
2018-06-23T06:17:47.428Z,18.70
2018-06-23T06:20:50.647Z,18.40
2018-06-23T06:23:53.962Z,19.20
2018-06-23T06:26:57.155Z,19.70
2018-06-23T06:30:00.394Z,19.20
2018-06-23T06:33:03.615Z,19.40
2018-06-23T06:36:06.819Z,20.70
2018-06-23T06:39:10.012Z,20.40
2018-06-23T06:42:13.445Z,19.80
2018-06-23T06:45:16.758Z,19.50
2018-06-23T06:48:20.048Z,19.10
2018-06-23T06:51:23.308Z,18.30
2018-06-23T06:54:26.955Z,17.70
2018-06-23T06:57:30.170Z,17.60
2018-06-23T07:00:33.447Z,17.80
2018-06-23T07:03:36.772Z,19.70
2018-06-23T07:06:39.904Z,21.50
2018-06-23T07:09:43.131Z,21.40
2018-06-23T07:12:46.383Z,20.60
2018-06-23T07:15:49.602Z,19.50
2018-06-23T07:21:55.807Z,18.70
2018-06-23T07:24:59.043Z,18.60
2018-06-23T07:31:05.727Z,18.70
2018-06-23T07:34:08.975Z,18.70
2018-06-23T07:37:12.231Z,18.60
2018-06-23T07:40:15.487Z,18.40
2018-06-23T07:43:18.785Z,18.40
2018-06-23T07:46:21.990Z,18.20
2018-06-23T07:49:25.427Z,19.20
2018-06-23T07:55:31.620Z,21.00
2018-06-23T07:58:34.874Z,21.10
2018-06-23T08:01:38.113Z,20.70
2018-06-23T08:04:41.307Z,20.80
2018-06-23T08:07:45.003Z,21.10
2018-06-23T08:10:48.195Z,21.50
2018-06-23T08:13:51.394Z,20.90
2018-06-23T08:16:54.598Z,20.80
2018-06-23T08:19:58.691Z,21.30
2018-06-23T08:23:01.962Z,21.40
2018-06-23T08:26:05.430Z,21.60
2018-06-23T08:29:08.627Z,22.70
2018-06-23T08:32:11.846Z,23.50
2018-06-23T08:35:15.058Z,22.20
2018-06-23T08:38:18.278Z,21.30
2018-06-23T08:41:21.751Z,21.10
2018-06-23T08:44:24.951Z,20.20
2018-06-23T08:47:28.171Z,19.60
2018-06-23T08:50:31.363Z,19.40
2018-06-23T08:53:34.555Z,19.20
2018-06-23T08:56:37.822Z,19.70
2018-06-23T08:59:41.302Z,19.80
2018-06-23T09:02:44.570Z,20.60
2018-06-23T09:05:47.731Z,20.70
2018-06-23T09:08:50.900Z,21.20
2018-06-23T09:11:54.063Z,22.30
2018-06-23T09:14:57.239Z,21.80
2018-06-23T09:18:00.438Z,20.80
2018-06-23T09:21:03.602Z,21.30
2018-06-23T09:24:06.766Z,21.90
2018-06-23T09:27:09.938Z,22.10
2018-06-23T09:33:16.064Z,24.50
2018-06-23T09:36:19.262Z,25.00
2018-06-23T09:39:22.476Z,24.40
2018-06-23T09:42:25.638Z,22.00
2018-06-23T09:45:28.819Z,20.50
2018-06-23T09:48:32.390Z,19.70
2018-06-23T09:51:35.595Z,19.80
2018-06-23T09:54:39.111Z,20.70
2018-06-23T09:57:42.312Z,21.30
2018-06-23T10:00:45.487Z,21.40
2018-06-23T10:03:48.680Z,21.90
2018-06-23T10:06:51.854Z,22.00
2018-06-23T10:09:55.041Z,21.70
2018-06-23T10:12:58.239Z,21.50
2018-06-23T10:16:01.410Z,21.10
2018-06-23T10:19:04.615Z,20.30
2018-06-23T10:22:07.807Z,19.90
2018-06-23T10:25:11.003Z,19.70
2018-06-23T10:28:14.191Z,19.90
2018-06-23T10:31:17.387Z,19.90
2018-06-23T10:37:23.636Z,20.30
2018-06-23T10:40:26.852Z,21.70
2018-06-23T10:43:30.075Z,23.20
2018-06-23T10:46:33.533Z,24.40
2018-06-23T10:49:36.784Z,25.60
2018-06-23T10:52:40.074Z,25.60
2018-06-23T10:58:46.258Z,23.60
2018-06-23T11:01:49.450Z,23.00
2018-06-23T11:04:52.897Z,22.40
2018-06-23T11:07:56.032Z,22.90
2018-06-23T11:10:59.234Z,22.80
2018-06-23T11:14:02.459Z,22.50
2018-06-23T11:17:05.675Z,22.40
2018-06-23T11:20:08.963Z,22.30
2018-06-23T11:23:12.175Z,22.60
2018-06-23T11:26:15.406Z,22.80
2018-06-23T11:29:18.617Z,22.40
2018-06-23T11:32:24.855Z,21.60
2018-06-23T11:35:28.058Z,20.80
2018-06-23T11:38:31.275Z,20.40
2018-06-23T11:41:34.487Z,20.50
2018-06-23T11:44:37.679Z,21.40
2018-06-23T11:47:40.863Z,22.30
2018-06-23T11:50:44.087Z,22.50
2018-06-23T11:53:47.364Z,21.70
2018-06-23T11:56:50.546Z,21.30
2018-06-23T11:59:53.757Z,21.20
2018-06-23T12:02:56.997Z,21.00
2018-06-23T12:06:00.199Z,21.10
2018-06-23T12:09:04.685Z,21.10
2018-06-23T12:12:07.991Z,21.40
2018-06-23T12:15:11.203Z,21.50
2018-06-23T12:18:14.439Z,20.80
2018-06-23T12:21:17.647Z,20.60
2018-06-23T12:24:20.862Z,20.40
2018-06-23T12:27:24.087Z,20.30
2018-06-23T12:30:27.327Z,20.30
2018-06-23T12:33:30.650Z,20.10
2018-06-23T12:36:33.863Z,20.20
2018-06-23T12:39:37.087Z,20.40
2018-06-23T12:42:40.393Z,21.00
2018-06-23T12:45:43.606Z,21.20
2018-06-23T12:48:46.944Z,21.10
2018-06-23T12:51:50.122Z,20.70
2018-06-23T12:57:56.284Z,20.70
2018-06-23T13:00:59.463Z,20.90
2018-06-23T13:04:02.663Z,21.10
2018-06-23T13:07:05.882Z,21.40
2018-06-23T13:10:09.063Z,21.20
2018-06-23T13:13:12.231Z,20.90
2018-06-23T13:16:15.403Z,20.90
2018-06-23T13:19:18.574Z,21.00
2018-06-23T13:22:22.311Z,21.00
2018-06-23T13:25:26.300Z,21.20
2018-06-23T13:28:29.487Z,21.40
2018-06-23T13:31:32.643Z,21.60
2018-06-23T13:34:35.828Z,22.10
2018-06-23T13:37:38.998Z,22.50
2018-06-23T13:40:42.306Z,22.50
2018-06-23T13:43:45.495Z,22.30
2018-06-23T13:46:48.994Z,21.80
2018-06-23T13:49:52.230Z,21.50
2018-06-23T13:52:56.107Z,21.00
2018-06-23T13:55:59.971Z,20.80
2018-06-23T13:59:05.196Z,21.00
2018-06-23T14:02:08.824Z,21.10
2018-06-23T14:05:12.549Z,21.20
2018-06-23T14:08:15.780Z,21.30
2018-06-23T14:11:19.051Z,21.10
2018-06-23T14:17:25.203Z,21.60
2018-06-23T14:20:28.379Z,21.40
2018-06-23T14:23:31.556Z,21.70
2018-06-23T14:26:34.726Z,21.90
2018-06-23T14:29:37.901Z,21.60
2018-06-23T14:32:41.055Z,20.80
2018-06-23T14:35:44.235Z,20.60
2018-06-23T14:38:47.422Z,20.80
2018-06-23T14:41:50.599Z,21.30
2018-06-23T15:44:34.962Z,20.40
2018-06-23T15:47:38.139Z,20.70
2018-06-23T15:50:41.386Z,20.70
2018-06-23T15:56:33.823Z,21.00
2018-06-23T16:05:48.738Z,20.30
2018-06-23T16:17:48.002Z,20.60
2018-06-23T16:20:51.172Z,20.50
2018-06-23T16:23:54.362Z,20.50
2018-06-23T16:26:57.534Z,20.40
2018-06-23T16:33:03.671Z,20.60
2018-06-23T16:36:06.876Z,19.90
2018-06-23T16:39:11.118Z,19.90
2018-06-23T16:42:14.310Z,20.00
2018-06-23T16:45:17.491Z,19.80
2018-06-23T16:55:04.839Z,19.30
2018-06-23T16:58:08.055Z,19.30
2018-06-23T17:01:11.259Z,19.40
2018-06-23T17:04:14.488Z,19.40
2018-06-23T17:07:17.691Z,19.30
2018-06-23T17:10:20.904Z,19.20
2018-06-23T17:13:24.120Z,19.40
2018-06-23T17:22:26.339Z,19.30
2018-06-23T17:27:56.122Z,19.40
2018-06-23T17:30:59.386Z,19.40
2018-06-23T17:34:02.600Z,19.50
2018-06-23T17:43:11.849Z,18.30
2018-06-23T17:46:15.080Z,18.50
2018-06-23T17:49:18.276Z,18.30
2018-06-23T17:53:37.251Z,18.30
2018-06-23T17:56:41.114Z,18.10
2018-06-23T17:59:44.326Z,18.60
2018-06-23T18:05:50.520Z,18.80
2018-06-23T18:08:53.742Z,18.30
2018-06-23T18:11:57.418Z,18.30
2018-06-23T18:15:00.636Z,18.40
2018-06-23T18:32:22.795Z,17.60
2018-06-23T18:35:25.988Z,17.20
2018-06-23T18:43:29.387Z,16.90
2018-06-23T18:46:32.582Z,16.70
2018-06-23T18:49:35.778Z,16.80
2018-06-23T18:55:35.751Z,16.60
2018-06-23T18:58:39.059Z,16.30
2018-06-23T19:07:53.063Z,16.10
2018-06-23T19:10:56.254Z,16.30
2018-06-23T19:13:59.474Z,15.80
2018-06-23T19:26:13.531Z,15.70
2018-06-23T19:29:16.842Z,15.50
2018-06-23T19:32:20.298Z,15.40
2018-06-23T19:35:24.046Z,15.40
2018-06-23T19:38:27.363Z,15.80
2018-06-23T19:41:30.567Z,15.40
2018-06-23T19:44:33.780Z,15.40
2018-06-23T19:47:36.994Z,15.80
2018-06-23T19:53:22.603Z,15.40
2018-06-23T19:56:25.802Z,15.50
2018-06-23T19:59:29.017Z,15.50
2018-06-23T20:05:35.339Z,15.30
2018-06-23T20:08:38.587Z,15.30
2018-06-23T20:11:41.790Z,15.20
2018-06-23T20:14:45.096Z,15.10
2018-06-23T20:17:48.255Z,15.10
2018-06-23T20:23:49.817Z,15.00
2018-06-23T20:30:11.504Z,15.00
2018-06-23T20:33:52.990Z,15.10
2018-06-23T20:49:10.383Z,15.20
2018-06-23T20:52:13.601Z,15.20
2018-06-23T20:58:19.784Z,15.00
2018-06-23T21:01:22.995Z,15.10
2018-06-23T21:10:37.778Z,14.90
2018-06-23T21:16:35.453Z,14.80
2018-06-23T21:19:38.659Z,14.70
2018-06-23T21:25:44.826Z,14.60
2018-06-23T21:28:48.048Z,14.50
2018-06-23T21:31:51.254Z,14.40
2018-06-23T21:34:54.467Z,14.50
2018-06-23T21:41:07.107Z,14.30
2018-06-23T21:47:12.337Z,14.10
2018-06-23T21:50:15.644Z,14.10
2018-06-23T21:56:20.349Z,14.20
2018-06-23T22:02:25.694Z,14.20
2018-06-23T22:08:29.470Z,14.20
2018-06-23T22:11:32.674Z,14.00
2018-06-23T22:14:35.899Z,14.30
2018-06-23T22:20:43.396Z,14.10
2018-06-23T22:26:49.650Z,13.90
2018-06-23T22:29:52.866Z,14.10
2018-06-23T22:32:56.090Z,14.00
2018-06-23T22:35:59.357Z,13.90
2018-06-23T22:39:02.595Z,13.80
2018-06-23T22:42:05.794Z,13.90
2018-06-23T22:48:12.024Z,14.10
2018-06-23T22:51:15.211Z,14.00
2018-06-23T22:54:18.393Z,13.90
2018-06-23T23:00:14.243Z,13.90
2018-06-23T23:03:17.410Z,13.50
2018-06-23T23:06:20.605Z,13.80
2018-06-23T23:18:14.753Z,13.90
2018-06-23T23:24:20.990Z,13.40
2018-06-23T23:30:27.139Z,13.60
2018-06-23T23:33:30.306Z,13.80
2018-06-23T23:36:33.492Z,14.00
2018-06-23T23:39:36.768Z,13.90
2018-06-23T23:42:39.918Z,13.70
2018-06-23T23:45:43.094Z,14.10
2018-06-23T23:48:46.259Z,13.80
2018-06-23T23:54:52.432Z,13.90
2018-06-23T23:57:55.630Z,13.40
